createdAt,value
2023-05-11T20:39:57.072Z,2.40
2023-05-11T20:42:58.942Z,3.17
2023-05-11T20:46:05.366Z,2.60
2023-05-11T20:49:07.389Z,4.53
2023-05-11T20:52:09.897Z,2.60
2023-05-11T20:55:12.105Z,2.88
2023-05-11T20:58:13.979Z,3.22
2023-05-11T21:01:15.840Z,3.50
2023-05-11T21:04:17.871Z,2.97
2023-05-11T21:07:23.007Z,3.95
2023-05-11T21:13:26.676Z,2.70
2023-05-11T21:16:28.606Z,2.90
2023-05-11T21:19:30.461Z,2.60
2023-05-11T21:22:36.398Z,2.85
2023-05-11T21:25:38.213Z,2.90
2023-05-11T21:28:40.659Z,3.10
2023-05-11T21:31:42.529Z,2.95
2023-05-11T21:34:44.484Z,2.97
2023-05-11T21:37:49.616Z,2.90
2023-05-11T21:40:56.332Z,3.10
2023-05-11T21:43:58.599Z,2.78
2023-05-11T21:47:00.559Z,2.83
2023-05-11T21:50:02.445Z,2.80
2023-05-11T21:53:04.933Z,3.20
2023-05-11T21:56:06.989Z,3.65
2023-05-11T21:59:09.374Z,3.60
2023-05-11T22:02:11.514Z,3.13
2023-05-11T22:05:13.389Z,3.63
2023-05-11T22:08:15.914Z,3.60
2023-05-11T22:11:20.369Z,4.43
2023-05-11T22:14:24.155Z,3.17
2023-05-11T22:17:26.320Z,2.80
2023-05-11T22:20:28.223Z,2.90
2023-05-11T22:23:31.133Z,3.00
2023-05-11T22:26:33.103Z,2.78
2023-05-11T22:29:34.939Z,3.55
2023-05-11T22:32:36.748Z,3.63
2023-05-11T22:35:39.872Z,3.83
2023-05-11T22:38:42.013Z,4.20
2023-05-11T22:41:43.961Z,3.45
2023-05-11T22:44:45.835Z,4.40
2023-05-11T22:47:48.186Z,7.88
2023-05-11T22:50:50.060Z,8.70
2023-05-11T22:53:52.159Z,8.27
2023-05-11T22:56:54.002Z,6.18
2023-05-11T22:59:55.832Z,6.75
2023-05-11T23:02:57.686Z,8.13
2023-05-11T23:05:59.591Z,8.25
2023-05-11T23:09:01.577Z,7.43
2023-05-11T23:12:03.722Z,12.38
2023-05-11T23:15:06.201Z,13.05
2023-05-11T23:18:08.115Z,11.10
2023-05-11T23:21:09.924Z,6.80
2023-05-11T23:24:11.855Z,4.70
2023-05-11T23:27:13.698Z,4.53
2023-05-11T23:30:15.667Z,5.45
2023-05-11T23:33:18.040Z,5.78
2023-05-11T23:36:19.922Z,4.38
2023-05-11T23:39:21.762Z,4.70
2023-05-11T23:42:23.709Z,6.07
2023-05-11T23:45:27.724Z,8.50
2023-05-11T23:48:29.748Z,7.57
2023-05-11T23:51:32.407Z,6.97
2023-05-11T23:54:34.252Z,6.47
2023-05-11T23:57:36.098Z,7.78
